createdAt,value
2023-03-21T00:01:04.954Z,4.25
2023-03-21T00:03:35.396Z,2.03
2023-03-21T00:06:07.561Z,1.92
2023-03-21T00:08:35.675Z,1.88
2023-03-21T00:11:05.940Z,1.38
2023-03-21T00:13:38.474Z,2.10
2023-03-21T00:16:13.647Z,1.50
2023-03-21T00:18:48.808Z,1.17
2023-03-21T00:24:08.038Z,2.13
2023-03-21T00:26:38.208Z,2.17
2023-03-21T00:29:06.427Z,1.02
2023-03-21T00:31:34.543Z,2.72
2023-03-21T00:34:03.962Z,1.85
2023-03-21T00:36:32.503Z,1.60
2023-03-21T00:39:01.143Z,1.98
2023-03-21T00:41:41.900Z,2.45
2023-03-21T00:44:13.747Z,1.90
2023-03-21T00:46:51.703Z,1.90
2023-03-21T00:49:27.693Z,2.40
2023-03-21T00:51:59.489Z,2.25
2023-03-21T00:54:33.495Z,2.33
2023-03-21T00:57:03.082Z,1.70
2023-03-21T00:59:31.677Z,2.55
2023-03-21T01:02:00.841Z,2.30
2023-03-21T01:04:30.339Z,2.25
2023-03-21T01:06:58.370Z,1.33
2023-03-21T01:09:26.579Z,2.35
2023-03-21T01:11:54.683Z,1.85
2023-03-21T01:14:24.391Z,2.42
2023-03-21T01:16:54.988Z,1.80
2023-03-21T01:19:40.990Z,3.40
2023-03-21T01:22:17.666Z,2.58
2023-03-21T01:24:53.107Z,1.10
2023-03-21T01:27:23.282Z,1.40
2023-03-21T01:29:52.075Z,1.70
2023-03-21T01:32:20.352Z,3.35
2023-03-21T01:34:48.433Z,1.95
2023-03-21T01:37:19.139Z,3.00
2023-03-21T01:39:50.108Z,2.38
2023-03-21T01:42:18.341Z,1.42
2023-03-21T01:44:57.295Z,2.55
2023-03-21T01:47:27.829Z,1.20
2023-03-21T01:50:07.285Z,2.20
2023-03-21T01:52:50.887Z,0.70
2023-03-21T01:55:27.166Z,1.63
2023-03-21T01:58:06.371Z,1.92
2023-03-21T02:00:52.365Z,2.00
2023-03-21T02:03:38.262Z,1.67
2023-03-21T02:06:38.226Z,1.17
2023-03-21T02:09:19.660Z,1.40
2023-03-21T02:11:48.056Z,1.35
2023-03-21T02:14:26.955Z,1.75
2023-03-21T02:17:23.542Z,2.03
2023-03-21T02:20:25.431Z,1.35
2023-03-21T02:23:27.653Z,1.63
2023-03-21T02:26:39.530Z,1.55
2023-03-21T02:29:24.789Z,1.58
2023-03-21T02:32:18.095Z,1.70
2023-03-21T02:35:39.153Z,2.67
2023-03-21T02:38:17.357Z,1.52
2023-03-21T02:40:50.014Z,1.58
2023-03-21T02:43:29.424Z,2.65
2023-03-21T02:46:03.066Z,2.17
2023-03-21T02:48:49.874Z,2.13
2023-03-21T02:51:22.503Z,1.92
2023-03-21T02:54:24.601Z,2.50
2023-03-21T02:56:47.156Z,2.90
2023-03-21T02:59:17.067Z,1.48
2023-03-21T03:01:45.935Z,2.15
2023-03-21T03:04:22.350Z,2.72
2023-03-21T03:07:11.410Z,2.00
2023-03-21T03:09:57.357Z,1.95
2023-03-21T03:12:35.433Z,2.03
2023-03-21T03:15:17.911Z,1.45
2023-03-21T03:17:53.040Z,1.45
2023-03-21T03:20:29.580Z,1.83
2023-03-21T03:23:05.115Z,2.13
2023-03-21T03:25:43.235Z,1.20
2023-03-21T03:28:17.490Z,2.03
2023-03-21T03:31:01.196Z,1.85
2023-03-21T03:33:42.927Z,1.92
2023-03-21T03:36:30.378Z,1.02
2023-03-21T03:39:04.384Z,0.90
2023-03-21T03:42:03.044Z,1.45
2023-03-21T03:44:31.051Z,0.63
2023-03-21T03:47:11.831Z,1.90
2023-03-21T03:49:49.522Z,2.08
2023-03-21T03:52:21.644Z,2.88
2023-03-21T03:54:56.236Z,1.33
2023-03-21T03:57:28.532Z,1.73
2023-03-21T03:59:57.400Z,1.27
2023-03-21T04:02:43.819Z,3.10
2023-03-21T04:05:12.235Z,2.38
2023-03-21T04:07:41.353Z,1.05
2023-03-21T04:10:10.907Z,1.70
2023-03-21T04:12:44.190Z,1.67
2023-03-21T04:15:23.717Z,1.58
2023-03-21T04:17:57.374Z,2.75
2023-03-21T04:20:36.216Z,1.80
2023-03-21T04:23:06.246Z,1.63
2023-03-21T04:25:35.772Z,2.22
2023-03-21T04:28:07.766Z,1.27
2023-03-21T04:30:52.036Z,1.20
2023-03-21T04:33:28.988Z,1.27
2023-03-21T04:35:59.286Z,1.05
2023-03-21T04:38:31.069Z,1.55
2023-03-21T04:41:03.943Z,1.77
2023-03-21T04:43:33.705Z,0.57
2023-03-21T04:46:01.871Z,1.85
2023-03-21T04:48:30.420Z,1.83
2023-03-21T04:51:00.580Z,1.88
2023-03-21T04:53:30.080Z,2.72
2023-03-21T04:55:58.627Z,1.65
2023-03-21T04:58:26.725Z,0.70
2023-03-21T05:00:57.498Z,2.20
2023-03-21T05:03:25.886Z,1.35
2023-03-21T05:05:53.925Z,1.58
2023-03-21T05:08:21.953Z,1.52
2023-03-21T05:10:50.105Z,2.58
2023-03-21T05:13:18.440Z,2.60
2023-03-21T05:15:47.127Z,1.77
2023-03-21T05:18:24.770Z,1.80
2023-03-21T05:21:10.794Z,0.63
2023-03-21T05:23:40.774Z,1.20
2023-03-21T05:26:10.104Z,1.65
2023-03-21T05:28:53.321Z,1.63
2023-03-21T05:31:22.118Z,1.83
2023-03-21T05:33:56.237Z,1.63
2023-03-21T05:36:24.369Z,2.10
2023-03-21T05:38:52.407Z,1.25
2023-03-21T05:41:21.477Z,1.52
2023-03-21T05:43:49.878Z,1.30
2023-03-21T05:46:18.091Z,1.92
2023-03-21T05:48:46.485Z,1.08
2023-03-21T05:51:19.106Z,1.00
2023-03-21T05:53:48.510Z,1.02
2023-03-21T05:56:17.644Z,1.48
2023-03-21T05:58:55.856Z,1.33
2023-03-21T06:01:25.081Z,1.33
2023-03-21T06:04:06.993Z,1.52
2023-03-21T06:06:36.833Z,1.65
2023-03-21T06:09:06.375Z,1.42
2023-03-21T06:11:37.147Z,2.17
2023-03-21T06:14:34.354Z,1.40
2023-03-21T06:17:22.655Z,1.40
2023-03-21T06:19:57.154Z,0.73
2023-03-21T06:22:31.114Z,1.88
2023-03-21T06:24:59.406Z,0.82
2023-03-21T06:27:28.402Z,1.52
2023-03-21T06:29:58.037Z,1.85
2023-03-21T06:32:26.596Z,1.17
2023-03-21T06:35:02.304Z,0.93
2023-03-21T06:37:32.107Z,2.28
2023-03-21T06:40:00.168Z,1.35
2023-03-21T06:42:29.583Z,2.42
2023-03-21T06:45:03.397Z,1.13
2023-03-21T06:47:31.581Z,2.70
2023-03-21T06:50:00.443Z,1.33
2023-03-21T06:52:28.614Z,1.73
2023-03-21T06:54:58.071Z,2.05
2023-03-21T06:57:27.110Z,1.73
2023-03-21T06:59:55.188Z,1.75
2023-03-21T07:02:25.165Z,1.48
2023-03-21T07:05:05.242Z,2.15
2023-03-21T07:07:33.372Z,1.80
2023-03-21T07:10:02.898Z,1.90
2023-03-21T07:12:36.379Z,2.20
2023-03-21T07:15:26.140Z,1.48
2023-03-21T07:17:54.329Z,1.48
2023-03-21T07:20:22.473Z,1.60
2023-03-21T07:22:50.655Z,2.20
2023-03-21T07:25:20.821Z,3.13
2023-03-21T07:27:49.647Z,1.35
2023-03-21T07:30:19.388Z,1.52
2023-03-21T07:32:47.721Z,2.08
2023-03-21T07:35:18.644Z,1.48
2023-03-21T07:37:46.794Z,1.27
2023-03-21T07:40:18.560Z,1.58
2023-03-21T07:42:50.246Z,2.22
2023-03-21T07:45:29.546Z,1.85
2023-03-21T07:47:58.381Z,2.25
2023-03-21T07:50:26.471Z,1.65
2023-03-21T07:52:55.023Z,0.98
2023-03-21T07:55:23.140Z,1.08
2023-03-21T07:57:52.718Z,1.17
2023-03-21T08:00:23.855Z,0.45
2023-03-21T08:02:57.853Z,1.50
2023-03-21T08:05:28.969Z,0.73
2023-03-21T08:07:57.258Z,0.73
2023-03-21T08:10:25.845Z,1.08
2023-03-21T08:12:55.404Z,0.82
2023-03-21T08:15:23.956Z,1.10
2023-03-21T08:17:51.961Z,1.02
2023-03-21T08:20:22.065Z,0.93
2023-03-21T08:22:50.880Z,1.17
2023-03-21T08:25:20.479Z,1.45
2023-03-21T08:27:49.388Z,0.43
2023-03-21T08:30:21.316Z,0.63
2023-03-21T08:32:50.040Z,1.35
2023-03-21T08:35:20.578Z,1.33
2023-03-21T08:37:48.832Z,1.02
2023-03-21T08:40:18.896Z,1.30
2023-03-21T08:42:47.644Z,0.68
2023-03-21T08:45:18.704Z,0.65
2023-03-21T08:47:47.509Z,1.05
2023-03-21T08:50:18.563Z,0.57
2023-03-21T08:52:46.725Z,0.35
2023-03-21T08:55:15.872Z,1.60
2023-03-21T08:57:44.578Z,1.02
2023-03-21T09:00:15.360Z,0.52
2023-03-21T09:02:46.819Z,1.15
2023-03-21T09:05:16.790Z,0.50
2023-03-21T09:07:45.614Z,0.40
2023-03-21T09:10:20.498Z,0.38
2023-03-21T09:12:50.361Z,0.73
2023-03-21T09:15:21.815Z,0.93
2023-03-21T09:17:53.204Z,0.40
2023-03-21T09:20:26.333Z,0.73
2023-03-21T09:22:54.955Z,0.30
2023-03-21T09:25:23.776Z,0.57
2023-03-21T09:27:52.489Z,0.73
2023-03-21T09:30:24.750Z,0.68
2023-03-21T09:32:55.960Z,0.60
2023-03-21T09:35:24.836Z,0.90
2023-03-21T09:37:53.189Z,0.40
2023-03-21T09:40:30.021Z,0.55
2023-03-21T09:43:02.912Z,0.47
2023-03-21T09:45:38.513Z,0.35
2023-03-21T09:48:31.339Z,0.50
2023-03-21T09:50:59.516Z,0.88
2023-03-21T09:53:33.930Z,0.47
2023-03-21T09:56:03.710Z,0.45
2023-03-21T09:58:36.684Z,0.73
2023-03-21T10:01:10.478Z,0.50
2023-03-21T10:03:39.921Z,0.88
2023-03-21T10:06:15.739Z,0.88
2023-03-21T10:08:48.050Z,0.90
2023-03-21T10:11:21.689Z,0.50
2023-03-21T10:13:54.532Z,0.57
2023-03-21T10:16:28.546Z,0.40
2023-03-21T10:19:00.401Z,0.60
2023-03-21T10:22:00.340Z,0.30
2023-03-21T10:24:21.895Z,0.52
2023-03-21T10:26:51.840Z,0.20
2023-03-21T10:29:23.577Z,0.98
2023-03-21T10:31:53.876Z,1.75
2023-03-21T10:34:29.669Z,0.90
2023-03-21T10:36:57.870Z,0.43
2023-03-21T10:39:33.202Z,0.68
2023-03-21T10:42:01.838Z,0.55
2023-03-21T10:44:34.879Z,0.40
2023-03-21T10:47:07.808Z,1.33
2023-03-21T10:50:05.725Z,0.60
2023-03-21T10:52:31.368Z,0.60
2023-03-21T10:55:17.815Z,1.30
2023-03-21T10:57:47.317Z,0.93
2023-03-21T11:00:21.813Z,0.95
2023-03-21T11:02:52.775Z,0.73
2023-03-21T11:05:25.754Z,1.45
2023-03-21T11:08:00.666Z,0.52
2023-03-21T11:10:31.316Z,1.75
2023-03-21T11:13:02.627Z,0.70
2023-03-21T11:15:32.915Z,1.60
2023-03-21T11:18:13.838Z,1.33
2023-03-21T11:20:49.630Z,1.17
2023-03-21T11:23:20.512Z,1.40
2023-03-21T11:25:51.044Z,1.40
2023-03-21T11:28:22.389Z,0.77
2023-03-21T11:30:54.226Z,0.73
2023-03-21T11:33:24.060Z,1.02
2023-03-21T11:36:05.946Z,1.27
2023-03-21T11:38:37.793Z,1.45
2023-03-21T11:41:07.324Z,1.17
2023-03-21T11:43:38.005Z,1.98
2023-03-21T11:46:10.909Z,2.13
2023-03-21T11:48:42.418Z,1.13
2023-03-21T11:51:23.676Z,0.98
2023-03-21T11:54:01.534Z,1.98
2023-03-21T11:56:33.512Z,1.23
2023-03-21T11:59:30.787Z,1.08
2023-03-21T12:02:21.032Z,1.83
2023-03-21T12:04:55.662Z,0.95
2023-03-21T12:07:47.622Z,0.35
2023-03-21T12:10:33.762Z,0.85
2023-03-21T12:13:27.706Z,0.50
2023-03-21T12:16:02.928Z,0.60
2023-03-21T12:18:45.457Z,1.92
2023-03-21T12:21:20.252Z,0.65
2023-03-21T12:24:00.314Z,1.02
2023-03-21T12:26:30.609Z,1.05
2023-03-21T12:29:19.724Z,0.52
2023-03-21T12:32:02.614Z,0.88
2023-03-21T12:34:46.727Z,1.23
2023-03-21T12:37:22.614Z,0.93
2023-03-21T12:39:52.257Z,1.27
2023-03-21T12:42:47.548Z,2.03
2023-03-21T12:45:20.774Z,1.70
2023-03-21T12:47:52.772Z,0.70
2023-03-21T12:50:26.050Z,1.83
2023-03-21T12:52:57.338Z,0.88
2023-03-21T12:55:29.400Z,1.33
2023-03-21T12:58:04.432Z,1.67
2023-03-21T13:00:37.900Z,1.25
2023-03-21T13:03:13.040Z,0.95
2023-03-21T13:05:46.665Z,1.80
2023-03-21T13:08:20.628Z,1.20
2023-03-21T13:10:50.337Z,1.20
2023-03-21T13:13:28.286Z,0.77
2023-03-21T13:16:06.404Z,0.90
2023-03-21T13:18:46.769Z,1.23
2023-03-21T13:21:19.233Z,0.57
2023-03-21T13:24:00.924Z,0.43
2023-03-21T13:26:40.624Z,0.75
2023-03-21T13:29:23.024Z,1.70
2023-03-21T13:31:53.851Z,0.73
2023-03-21T13:34:24.695Z,2.40
2023-03-21T13:36:53.636Z,0.40
2023-03-21T13:39:26.566Z,1.08
2023-03-21T13:41:56.740Z,0.20
2023-03-21T13:44:33.192Z,1.50
2023-03-21T13:47:03.817Z,0.90
2023-03-21T13:49:34.554Z,0.60
2023-03-21T13:52:22.144Z,1.02
2023-03-21T13:54:53.483Z,1.05
2023-03-21T13:57:42.307Z,1.73
2023-03-21T14:00:23.697Z,1.27
2023-03-21T14:02:57.312Z,0.73
2023-03-21T14:05:27.539Z,0.63
2023-03-21T14:08:06.130Z,1.17
2023-03-21T14:10:41.832Z,0.70
2023-03-21T14:13:17.350Z,0.50
2023-03-21T14:15:55.290Z,0.90
2023-03-21T14:18:51.596Z,0.25
2023-03-21T14:21:23.723Z,0.50
2023-03-21T14:24:00.914Z,0.75
2023-03-21T14:26:31.612Z,1.17
2023-03-21T14:29:05.247Z,0.35
2023-03-21T14:31:34.396Z,0.68
2023-03-21T14:34:05.072Z,0.88
2023-03-21T14:36:43.220Z,0.47
2023-03-21T14:39:17.188Z,0.80
2023-03-21T14:41:48.839Z,0.50
2023-03-21T14:44:26.585Z,0.30
2023-03-21T14:47:00.385Z,1.05
2023-03-21T14:49:30.471Z,0.15
2023-03-21T14:52:01.793Z,1.23
2023-03-21T14:54:31.287Z,0.50
2023-03-21T14:57:02.761Z,0.63
2023-03-21T14:59:35.881Z,0.85
2023-03-21T15:02:08.412Z,0.70
2023-03-21T15:04:36.537Z,1.17
2023-03-21T15:07:07.865Z,0.45
2023-03-21T15:09:36.490Z,0.85
2023-03-21T15:12:09.504Z,1.40
2023-03-21T15:14:40.553Z,0.70
2023-03-21T15:17:09.280Z,0.57
2023-03-21T15:19:40.439Z,0.60
2023-03-21T15:22:17.526Z,0.70
2023-03-21T15:24:49.198Z,1.17
2023-03-21T15:27:20.307Z,1.42
2023-03-21T15:29:54.109Z,0.80
2023-03-21T15:32:24.525Z,1.35
2023-03-21T15:34:55.152Z,0.98
2023-03-21T15:37:25.100Z,1.23
2023-03-21T15:39:54.558Z,0.65
2023-03-21T15:42:29.183Z,0.90
2023-03-21T15:45:02.321Z,1.02
2023-03-21T15:47:51.047Z,0.45
2023-03-21T15:50:27.828Z,1.58
2023-03-21T15:52:57.505Z,0.80
2023-03-21T15:55:29.421Z,0.65
2023-03-21T15:58:04.585Z,0.60
2023-03-21T16:00:40.627Z,1.00
2023-03-21T16:03:17.078Z,0.60
2023-03-21T16:06:05.798Z,0.65
2023-03-21T16:08:35.900Z,0.30
2023-03-21T16:11:09.045Z,0.50
2023-03-21T16:13:37.258Z,1.00
2023-03-21T16:16:07.686Z,1.05
2023-03-21T16:18:38.381Z,1.60
2023-03-21T16:21:06.941Z,0.77
2023-03-21T16:23:36.606Z,0.70
2023-03-21T16:26:05.382Z,0.30
2023-03-21T16:28:33.980Z,1.15
2023-03-21T16:31:02.350Z,1.13
2023-03-21T16:33:32.489Z,1.17
2023-03-21T16:36:03.007Z,0.80
2023-03-21T16:38:31.244Z,0.80
2023-03-21T16:41:00.919Z,0.90
2023-03-21T16:43:29.326Z,0.35
2023-03-21T16:45:57.432Z,0.98
2023-03-21T16:48:26.348Z,0.50
2023-03-21T16:50:55.855Z,1.58
2023-03-21T16:53:24.881Z,0.60
2023-03-21T16:55:54.093Z,0.63
2023-03-21T16:58:23.181Z,0.88
2023-03-21T17:00:51.239Z,0.57
2023-03-21T17:03:19.510Z,0.30
2023-03-21T17:05:47.711Z,0.82
2023-03-21T17:08:19.434Z,0.93
2023-03-21T17:10:47.517Z,0.98
2023-03-21T17:13:15.661Z,0.45
2023-03-21T17:15:43.720Z,1.13
2023-03-21T17:18:13.154Z,0.55
2023-03-21T17:20:41.861Z,0.98
2023-03-21T17:23:10.936Z,1.27
2023-03-21T17:25:40.549Z,0.68
2023-03-21T17:28:08.693Z,1.27
2023-03-21T17:30:40.001Z,1.55
2023-03-21T17:33:08.558Z,0.30
2023-03-21T17:35:37.341Z,0.82
2023-03-21T17:38:06.117Z,1.25
2023-03-21T17:40:34.570Z,1.50
2023-03-21T17:43:04.034Z,1.17
2023-03-21T17:45:32.164Z,1.50
2023-03-21T17:48:00.411Z,1.33
2023-03-21T17:50:34.066Z,1.20
2023-03-21T17:53:02.230Z,0.85
2023-03-21T17:55:30.651Z,1.65
2023-03-21T17:57:58.770Z,1.33
2023-03-21T18:00:30.353Z,1.60
2023-03-21T18:02:58.532Z,0.63
2023-03-21T18:05:27.652Z,1.35
2023-03-21T18:08:12.517Z,0.73
2023-03-21T18:10:42.318Z,1.08
2023-03-21T18:13:10.820Z,0.63
2023-03-21T18:15:44.033Z,0.82
2023-03-21T18:18:13.101Z,1.00
2023-03-21T18:20:58.442Z,0.47
2023-03-21T18:23:27.119Z,14.30
2023-03-21T18:25:55.889Z,14.18
2023-03-21T18:28:24.570Z,15.15
2023-03-21T18:31:15.729Z,15.15
2023-03-21T18:33:45.370Z,14.95
2023-03-21T18:36:16.437Z,15.05
2023-03-21T18:38:44.927Z,15.68
2023-03-21T18:41:15.077Z,15.70
2023-03-21T18:46:32.998Z,15.75
2023-03-21T18:49:26.947Z,15.40
2023-03-21T18:51:49.400Z,15.60
2023-03-21T18:54:18.022Z,16.20
2023-03-21T18:59:40.026Z,15.00
2023-03-21T19:02:09.882Z,15.30
2023-03-21T19:04:38.388Z,16.02
2023-03-21T19:07:08.064Z,16.17
2023-03-21T19:10:01.427Z,15.77
2023-03-21T19:12:28.089Z,14.80
2023-03-21T19:14:56.648Z,16.13
2023-03-21T19:18:15.740Z,15.18
2023-03-21T19:20:15.449Z,15.77
2023-03-21T19:22:44.192Z,15.48
2023-03-21T19:25:13.346Z,15.30
2023-03-21T19:27:42.075Z,15.00
2023-03-21T19:30:15.751Z,15.32
2023-03-21T19:32:46.029Z,16.70
2023-03-21T19:35:14.433Z,16.27
2023-03-21T19:37:42.550Z,16.30
2023-03-21T19:40:11.781Z,16.60
2023-03-21T19:42:40.546Z,15.43
2023-03-21T19:45:10.063Z,16.20
2023-03-21T19:47:39.428Z,16.42
2023-03-21T19:52:58.719Z,17.13
2023-03-21T19:55:27.091Z,17.08
2023-03-21T19:57:55.280Z,17.02
2023-03-21T20:00:24.036Z,17.35
2023-03-21T20:02:52.220Z,17.15
2023-03-21T20:05:22.256Z,17.63
2023-03-21T20:07:50.507Z,17.65
2023-03-21T20:10:18.852Z,18.52
2023-03-21T20:12:47.202Z,18.08
2023-03-21T20:15:19.546Z,17.42
2023-03-21T20:17:49.492Z,18.27
2023-03-21T20:20:18.772Z,18.17
2023-03-21T20:23:07.892Z,18.50
2023-03-21T20:25:36.465Z,18.48
2023-03-21T20:28:25.838Z,18.70
2023-03-21T20:30:56.711Z,19.02
2023-03-21T20:33:25.202Z,18.77
2023-03-21T20:36:37.678Z,18.15
2023-03-21T20:38:48.691Z,18.45
2023-03-21T20:41:16.824Z,18.55
2023-03-21T20:46:33.988Z,17.92
2023-03-21T20:49:05.712Z,17.60
2023-03-21T20:54:23.336Z,17.38
2023-03-21T20:56:51.393Z,17.40
2023-03-21T20:59:26.407Z,17.08
2023-03-21T21:01:57.185Z,16.77
2023-03-21T21:04:44.317Z,16.23
2023-03-21T21:07:15.949Z,14.73
2023-03-21T21:09:46.582Z,14.35
2023-03-21T21:12:16.394Z,14.13
2023-03-21T21:14:45.420Z,13.20
2023-03-21T21:20:02.542Z,13.45
2023-03-21T21:22:31.580Z,13.60
2023-03-21T21:25:01.004Z,13.40
2023-03-21T21:27:29.384Z,13.95
2023-03-21T21:29:57.588Z,13.98
2023-03-21T21:32:25.825Z,15.90
2023-03-21T21:34:54.093Z,13.82
2023-03-21T21:37:22.631Z,14.75
2023-03-21T21:39:50.784Z,14.90
2023-03-21T21:42:20.203Z,14.70
2023-03-21T21:44:48.296Z,15.07
2023-03-21T21:47:16.486Z,15.57
2023-03-21T21:49:44.549Z,15.05
2023-03-21T21:52:13.744Z,14.70
2023-03-21T21:54:46.077Z,15.88
2023-03-21T21:57:14.719Z,15.68
2023-03-21T21:59:44.089Z,15.05
2023-03-21T22:02:14.091Z,15.18
2023-03-21T22:04:42.179Z,14.80
2023-03-21T22:07:14.333Z,14.20
2023-03-21T22:09:42.634Z,15.13
2023-03-21T22:12:10.993Z,15.10
2023-03-21T22:14:38.994Z,15.30
2023-03-21T22:17:08.437Z,14.18
2023-03-21T22:19:37.825Z,15.40
2023-03-21T22:22:07.858Z,14.77
2023-03-21T22:24:37.422Z,15.23
2023-03-21T22:27:05.945Z,14.95
2023-03-21T22:29:34.066Z,14.85
2023-03-21T22:32:02.344Z,15.43
2023-03-21T22:34:31.916Z,14.82
2023-03-21T22:37:00.177Z,14.70
2023-03-21T22:39:28.699Z,14.90
2023-03-21T22:42:00.931Z,14.27
2023-03-21T22:44:34.385Z,14.35
2023-03-21T22:47:03.316Z,14.90
2023-03-21T22:49:33.292Z,15.45
2023-03-21T22:52:03.310Z,15.60
2023-03-21T22:54:31.593Z,15.38
2023-03-21T22:57:00.392Z,15.98
2023-03-21T22:59:29.039Z,15.10
2023-03-21T23:01:57.756Z,15.23
2023-03-21T23:04:27.333Z,14.77
2023-03-21T23:06:56.910Z,14.65
2023-03-21T23:09:25.694Z,15.02
2023-03-21T23:11:53.873Z,14.38
2023-03-21T23:14:22.736Z,13.38
2023-03-21T23:16:52.601Z,14.98
2023-03-21T23:19:21.229Z,13.27
2023-03-21T23:21:50.183Z,14.02
2023-03-21T23:24:19.717Z,13.02
2023-03-21T23:26:47.783Z,12.35
2023-03-21T23:29:16.015Z,12.52
2023-03-21T23:31:44.128Z,12.27
2023-03-21T23:34:13.108Z,12.73
2023-03-21T23:36:41.260Z,12.57
2023-03-21T23:39:09.651Z,11.85
2023-03-21T23:41:39.084Z,13.35
2023-03-21T23:44:07.250Z,13.15
2023-03-21T23:46:35.358Z,13.23
2023-03-21T23:49:03.639Z,11.57
2023-03-21T23:51:31.798Z,12.23
2023-03-21T23:53:59.867Z,11.90
2023-03-21T23:56:28.561Z,11.60
2023-03-21T23:58:58.421Z,11.68
